createdAt,value
2023-04-09T00:00:17.716Z,2.78
2023-04-09T00:02:44.551Z,2.79
2023-04-09T00:05:11.461Z,2.79
2023-04-09T00:07:38.225Z,2.80
2023-04-09T00:10:05.630Z,2.80
2023-04-09T00:12:32.196Z,2.81
2023-04-09T00:14:59.002Z,2.86
2023-04-09T00:17:25.759Z,2.85
2023-04-09T00:19:52.606Z,2.85
2023-04-09T00:22:19.294Z,2.84
2023-04-09T00:24:46.206Z,2.84
2023-04-09T00:27:12.910Z,2.88
2023-04-09T00:29:39.666Z,2.65
2023-04-09T00:32:06.760Z,2.83
2023-04-09T00:34:33.635Z,2.81
2023-04-09T00:37:00.594Z,2.81
2023-04-09T00:39:27.410Z,2.71
2023-04-09T00:41:59.479Z,2.72
2023-04-09T00:44:26.258Z,2.74
2023-04-09T00:46:54.086Z,2.70
2023-04-09T00:49:21.875Z,2.69
2023-04-09T00:51:48.916Z,2.67
2023-04-09T00:54:16.303Z,2.74
2023-04-09T00:56:42.933Z,2.71
2023-04-09T00:59:09.654Z,2.69
2023-04-09T01:01:36.548Z,2.70
2023-04-09T01:04:03.676Z,2.69
2023-04-09T01:06:49.676Z,2.61
2023-04-09T01:09:37.294Z,2.65
2023-04-09T01:12:31.727Z,2.64
2023-04-09T01:15:11.137Z,2.64
2023-04-09T01:17:43.770Z,2.66
2023-04-09T01:20:19.088Z,2.73
2023-04-09T01:23:11.094Z,2.78
2023-04-09T01:26:19.357Z,2.78
2023-04-09T01:28:55.947Z,2.77
2023-04-09T01:31:30.330Z,2.75
2023-04-09T01:33:58.834Z,2.72
2023-04-09T01:36:27.389Z,2.76
2023-04-09T01:38:56.301Z,2.75
2023-04-09T01:41:24.494Z,2.73
2023-04-09T01:43:52.188Z,2.76
2023-04-09T01:46:21.091Z,2.77
2023-04-09T01:48:48.824Z,2.83
2023-04-09T01:51:15.887Z,2.83
2023-04-09T01:53:42.636Z,2.79
2023-04-09T01:56:10.003Z,2.78
2023-04-09T01:58:36.794Z,2.77
2023-04-09T02:01:09.614Z,2.80
2023-04-09T02:03:43.177Z,2.84
2023-04-09T02:06:22.600Z,2.83
2023-04-09T02:08:51.623Z,2.82
2023-04-09T02:11:21.239Z,2.79
2023-04-09T02:13:49.980Z,2.83
2023-04-09T02:16:17.816Z,2.82
2023-04-09T02:18:44.674Z,2.84
2023-04-09T02:21:13.766Z,2.85
2023-04-09T02:23:40.839Z,2.84
2023-04-09T02:26:07.555Z,2.86
2023-04-09T02:28:34.412Z,2.85
2023-04-09T02:31:01.734Z,2.85
2023-04-09T02:33:30.452Z,2.86
2023-04-09T02:35:57.203Z,2.92
2023-04-09T02:38:24.654Z,2.94
2023-04-09T02:40:51.374Z,2.98
2023-04-09T02:43:18.133Z,3.00
2023-04-09T02:45:44.822Z,3.02
2023-04-09T02:48:11.607Z,3.00
2023-04-09T02:50:38.336Z,3.05
2023-04-09T02:53:05.115Z,3.07
2023-04-09T02:55:31.883Z,3.08
2023-04-09T02:57:58.805Z,3.09
2023-04-09T03:00:25.627Z,3.08
2023-04-09T03:02:53.407Z,3.11
2023-04-09T03:05:21.078Z,3.11
2023-04-09T03:07:47.819Z,3.07
2023-04-09T03:10:14.590Z,3.05
2023-04-09T03:12:41.365Z,3.06
2023-04-09T03:15:08.342Z,3.06
2023-04-09T03:17:35.045Z,3.07
2023-04-09T03:20:01.983Z,3.05
2023-04-09T03:22:39.452Z,3.06
2023-04-09T03:25:38.852Z,3.03
2023-04-09T03:28:12.228Z,3.06
2023-04-09T03:30:43.869Z,3.06
2023-04-09T03:33:11.420Z,3.05
2023-04-09T03:35:52.088Z,3.03
2023-04-09T03:38:27.380Z,3.04
2023-04-09T03:40:56.382Z,3.03
2023-04-09T03:43:23.159Z,3.03
2023-04-09T03:45:52.591Z,3.04
2023-04-09T03:48:23.117Z,3.05
2023-04-09T03:50:51.811Z,3.02
2023-04-09T03:53:24.911Z,3.05
2023-04-09T03:55:53.819Z,3.04
2023-04-09T03:58:24.652Z,3.02
2023-04-09T04:00:52.316Z,2.99
2023-04-09T04:03:33.441Z,2.96
2023-04-09T04:06:13.766Z,2.97
2023-04-09T04:08:51.276Z,2.99
2023-04-09T04:11:21.415Z,3.00
2023-04-09T04:13:52.473Z,3.00
2023-04-09T04:16:19.750Z,3.02
2023-04-09T04:18:46.520Z,3.03
2023-04-09T04:21:14.654Z,3.04
2023-04-09T04:23:44.926Z,3.04
2023-04-09T04:26:24.506Z,3.03
2023-04-09T04:28:51.535Z,3.02
2023-04-09T04:31:36.982Z,3.01
2023-04-09T04:34:03.878Z,3.02
2023-04-09T04:36:30.784Z,3.03
2023-04-09T04:38:57.551Z,3.03
2023-04-09T04:41:32.475Z,3.01
2023-04-09T04:44:19.442Z,3.06
2023-04-09T04:46:47.715Z,3.06
2023-04-09T04:49:14.631Z,3.07
2023-04-09T04:51:46.507Z,3.10
2023-04-09T04:54:15.278Z,3.13
2023-04-09T04:56:49.441Z,3.15
2023-04-09T04:59:27.690Z,3.16
2023-04-09T05:02:02.674Z,3.13
2023-04-09T05:04:33.528Z,3.18
2023-04-09T05:07:00.534Z,3.15
2023-04-09T05:09:27.732Z,3.21
2023-04-09T05:12:04.404Z,3.24
2023-04-09T05:14:31.542Z,3.27
2023-04-09T05:16:58.557Z,3.29
2023-04-09T05:19:31.119Z,3.33
2023-04-09T05:22:01.437Z,3.37
2023-04-09T05:24:28.184Z,3.40
2023-04-09T05:26:54.900Z,3.46
2023-04-09T05:29:22.313Z,3.49
2023-04-09T05:31:49.045Z,3.50
2023-04-09T05:34:30.479Z,3.58
2023-04-09T05:36:57.722Z,3.65
2023-04-09T05:39:25.768Z,3.68
2023-04-09T05:41:53.094Z,3.74
2023-04-09T05:44:36.358Z,3.75
2023-04-09T05:47:14.618Z,3.74
2023-04-09T05:49:47.677Z,3.74
2023-04-09T05:52:17.097Z,3.79
2023-04-09T05:54:44.155Z,3.84
2023-04-09T05:57:12.093Z,3.88
2023-04-09T05:59:42.760Z,3.95
2023-04-09T06:02:09.569Z,4.05
2023-04-09T06:04:36.385Z,4.11
2023-04-09T06:07:03.218Z,4.17
2023-04-09T06:09:29.989Z,4.28
2023-04-09T06:11:57.805Z,4.37
2023-04-09T06:14:24.629Z,4.50
2023-04-09T06:16:51.378Z,4.62
2023-04-09T06:19:18.742Z,4.70
2023-04-09T06:21:45.382Z,4.74
2023-04-09T06:24:12.086Z,4.87
2023-04-09T06:26:38.881Z,5.04
2023-04-09T06:29:05.579Z,5.22
2023-04-09T06:31:33.352Z,5.30
2023-04-09T06:34:03.114Z,5.33
2023-04-09T06:36:30.429Z,5.31
2023-04-09T06:38:56.973Z,5.44
2023-04-09T06:41:23.803Z,5.49
2023-04-09T06:43:51.069Z,5.67
2023-04-09T06:46:20.334Z,5.71
2023-04-09T06:48:47.771Z,5.62
2023-04-09T06:51:15.099Z,5.66
2023-04-09T06:53:42.152Z,5.76
2023-04-09T06:56:08.958Z,5.86
2023-04-09T06:58:35.658Z,5.85
2023-04-09T07:01:02.998Z,5.95
2023-04-09T07:03:30.368Z,5.96
2023-04-09T07:05:57.705Z,6.02
2023-04-09T07:08:24.612Z,5.88
2023-04-09T07:10:51.519Z,5.88
2023-04-09T07:13:18.258Z,6.08
2023-04-09T07:15:45.063Z,6.21
2023-04-09T07:18:11.773Z,-143.57
2023-04-09T07:20:38.614Z,-143.57
2023-04-09T07:23:05.340Z,-143.57
2023-04-09T07:25:32.484Z,-143.57
2023-04-09T07:27:59.235Z,-143.57
2023-04-09T07:30:25.989Z,-143.57
2023-04-09T07:32:52.932Z,-143.57
2023-04-09T07:35:19.764Z,-143.57
2023-04-09T07:37:46.549Z,-143.57
2023-04-09T07:40:13.344Z,-143.57
2023-04-09T07:42:40.769Z,-143.57
2023-04-09T07:45:07.960Z,-143.57
2023-04-09T07:47:34.640Z,-143.57
2023-04-09T07:50:01.340Z,-143.57
2023-04-09T07:52:28.133Z,-143.57
2023-04-09T07:54:54.920Z,-143.57
2023-04-09T07:57:22.173Z,-143.57
2023-04-09T07:59:48.895Z,-143.57
2023-04-09T08:02:16.200Z,-143.57
2023-04-09T08:04:45.798Z,-143.57
2023-04-09T08:08:10.793Z,-143.57
2023-04-09T08:11:15.676Z,-143.57
2023-04-09T08:14:41.422Z,-143.57
2023-04-09T08:18:07.171Z,-143.57
2023-04-09T08:21:32.669Z,-143.57
2023-04-09T08:25:00.276Z,-143.57
2023-04-09T08:28:29.564Z,-143.57
2023-04-09T08:31:55.351Z,-143.57
2023-04-09T08:35:20.702Z,-143.57
2023-04-09T08:38:47.203Z,-143.57
2023-04-09T08:42:24.060Z,-143.57
2023-04-09T08:45:49.465Z,-143.57
2023-04-09T08:49:15.774Z,-143.57
2023-04-09T08:52:46.185Z,-143.57
2023-04-09T08:56:11.513Z,-143.57
2023-04-09T08:59:38.114Z,-143.57
2023-04-09T09:03:08.446Z,-143.57
2023-04-09T09:06:44.943Z,-143.57
2023-04-09T09:10:13.974Z,-143.57
2023-04-09T09:13:40.282Z,-143.57
2023-04-09T09:17:12.628Z,-143.57
2023-04-09T09:20:38.199Z,-143.57
2023-04-09T09:24:16.603Z,-143.57
2023-04-09T09:27:41.899Z,-143.57
2023-04-09T09:31:11.418Z,-143.57
2023-04-09T09:34:36.920Z,-143.57
2023-04-09T09:38:22.128Z,-143.57
2023-04-09T09:41:48.871Z,-143.57
2023-04-09T09:45:32.202Z,-143.57
2023-04-09T09:48:57.614Z,-143.57
2023-04-09T09:52:27.020Z,-143.57
2023-04-09T09:55:53.868Z,-143.57
2023-04-09T09:59:23.357Z,-143.57
2023-04-09T10:03:07.374Z,-143.57
2023-04-09T10:06:34.509Z,-143.57
2023-04-09T10:10:02.601Z,-143.57
2023-04-09T10:13:36.135Z,-143.57
2023-04-09T10:17:04.048Z,-143.57
2023-04-09T10:20:35.672Z,-143.57
2023-04-09T10:24:06.554Z,-143.57
2023-04-09T10:27:32.730Z,-143.57
2023-04-09T10:30:58.471Z,-143.57
2023-04-09T10:34:27.995Z,-143.57
2023-04-09T10:37:56.513Z,-143.57
2023-04-09T10:41:22.936Z,-143.57
2023-04-09T10:45:03.811Z,-143.57
2023-04-09T10:48:36.097Z,-143.57
2023-04-09T10:52:03.259Z,-143.57
2023-04-09T10:55:38.686Z,-143.57
2023-04-09T10:59:04.667Z,-143.57
2023-04-09T11:02:56.545Z,-143.57
2023-04-09T11:06:28.218Z,-143.57
2023-04-09T11:09:53.421Z,-143.57
2023-04-09T11:13:20.706Z,-143.57
2023-04-09T11:16:47.962Z,-143.57
2023-04-09T11:20:24.697Z,-143.57
2023-04-09T11:23:54.244Z,-143.57
2023-04-09T11:27:22.901Z,-143.57
2023-04-09T11:30:54.072Z,-143.57
2023-04-09T11:34:19.689Z,-143.57
2023-04-09T11:37:47.646Z,-143.57
2023-04-09T11:41:14.171Z,-143.57
2023-04-09T11:44:39.492Z,-143.57
2023-04-09T11:48:04.898Z,-143.57
2023-04-09T11:51:32.747Z,-143.57
2023-04-09T11:55:02.081Z,-143.57
2023-04-09T11:58:47.695Z,-143.57
2023-04-09T12:02:17.480Z,-143.57
2023-04-09T12:05:51.217Z,-143.57
2023-04-09T12:09:05.651Z,-143.57
2023-04-09T12:12:31.256Z,-143.57
2023-04-09T12:15:58.725Z,-143.57
2023-04-09T12:19:25.811Z,-143.57
2023-04-09T12:22:51.866Z,-143.57
2023-04-09T12:26:17.171Z,-143.57
2023-04-09T12:28:45.083Z,-143.57
2023-04-09T12:32:10.415Z,-143.57
2023-04-09T12:34:37.382Z,-143.57
2023-04-09T12:38:02.744Z,-143.57
2023-04-09T12:40:35.739Z,-143.57
2023-04-09T12:43:03.835Z,-143.57
2023-04-09T12:45:31.383Z,-143.57
2023-04-09T12:48:56.806Z,-143.57
2023-04-09T12:52:22.625Z,-143.57
2023-04-09T12:55:47.876Z,-143.57
2023-04-09T12:59:13.188Z,-143.57
2023-04-09T13:02:38.802Z,-143.57
2023-04-09T13:06:04.445Z,-143.57
2023-04-09T13:08:31.364Z,-143.57
2023-04-09T13:10:58.129Z,-143.57
2023-04-09T13:13:25.173Z,11.93
2023-04-09T13:15:52.219Z,-143.57
2023-04-09T13:18:18.937Z,-143.57
2023-04-09T13:20:48.874Z,-143.57
2023-04-09T13:23:15.989Z,12.54
2023-04-09T13:25:42.605Z,12.22
2023-04-09T13:28:09.936Z,-143.57
2023-04-09T13:30:36.676Z,-143.57
2023-04-09T13:33:03.714Z,10.19
2023-04-09T13:35:30.817Z,-143.57
2023-04-09T13:37:57.537Z,-143.57
2023-04-09T13:40:24.282Z,-143.57
2023-04-09T13:44:35.233Z,10.59
2023-04-09T13:47:02.040Z,10.59
2023-04-09T13:49:30.377Z,10.69
2023-04-09T13:51:57.730Z,10.64
2023-04-09T13:54:29.769Z,-143.57
2023-04-09T13:57:36.537Z,-143.57
2023-04-09T14:00:05.137Z,-143.57
2023-04-09T14:02:57.907Z,-143.57
2023-04-09T14:05:28.725Z,-143.57
2023-04-09T14:08:01.281Z,-143.57
2023-04-09T14:10:28.081Z,-143.57
2023-04-09T14:12:54.779Z,-143.57
2023-04-09T14:15:22.152Z,-143.57
2023-04-09T14:18:47.398Z,-143.57
2023-04-09T14:22:10.434Z,-143.57
2023-04-09T14:25:36.762Z,-143.57
2023-04-09T14:29:02.072Z,-143.57
2023-04-09T14:32:27.293Z,-143.57
2023-04-09T14:35:52.865Z,-143.57
2023-04-09T14:39:18.403Z,-143.57
2023-04-09T14:42:43.700Z,-143.57
2023-04-09T14:46:12.135Z,-143.57
2023-04-09T14:49:37.611Z,-143.57
2023-04-09T14:53:03.800Z,-143.57
2023-04-09T14:56:29.016Z,-143.57
2023-04-09T14:59:54.439Z,-143.57
2023-04-09T15:03:19.919Z,-143.57
2023-04-09T15:06:45.450Z,-143.57
2023-04-09T15:10:11.098Z,-143.57
2023-04-09T15:13:36.421Z,-143.57
2023-04-09T15:17:01.676Z,-143.57
2023-04-09T15:20:26.886Z,-143.57
2023-04-09T15:23:52.613Z,-143.57
2023-04-09T15:27:18.152Z,-143.57
2023-04-09T15:30:43.465Z,-143.57
2023-04-09T15:34:08.831Z,-143.57
2023-04-09T15:37:34.039Z,-143.57
2023-04-09T15:40:59.206Z,-143.57
2023-04-09T15:44:24.716Z,-143.57
2023-04-09T15:47:50.010Z,-143.57
2023-04-09T15:51:16.682Z,-143.57
2023-04-09T15:54:41.851Z,-143.57
2023-04-09T15:58:07.218Z,-143.57
2023-04-09T16:01:32.823Z,-143.57
2023-04-09T16:04:58.100Z,-143.57
2023-04-09T16:08:23.350Z,-143.57
2023-04-09T16:11:48.517Z,-143.57
2023-04-09T16:15:13.713Z,-143.57
2023-04-09T16:18:38.966Z,-143.57
2023-04-09T16:22:04.296Z,-143.57
2023-04-09T16:25:29.602Z,-143.57
2023-04-09T16:28:55.169Z,-143.57
2023-04-09T16:32:20.589Z,-143.57
2023-04-09T16:35:45.851Z,-143.57
2023-04-09T16:39:11.411Z,-143.57
2023-04-09T16:42:36.888Z,-143.57
2023-04-09T16:46:07.337Z,-143.57
2023-04-09T16:49:32.702Z,-143.57
2023-04-09T16:52:58.108Z,-143.57
2023-04-09T16:56:23.321Z,-143.57
2023-04-09T16:59:48.492Z,-143.57
2023-04-09T17:03:13.796Z,-143.57
2023-04-09T17:06:39.116Z,-143.57
2023-04-09T17:10:04.546Z,-143.57
2023-04-09T17:13:31.605Z,-143.57
2023-04-09T17:16:56.955Z,-143.57
2023-04-09T17:20:22.744Z,-143.57
2023-04-09T17:23:47.995Z,-143.57
2023-04-09T17:27:13.476Z,-143.57
2023-04-09T17:30:38.675Z,-143.57
2023-04-09T17:34:04.018Z,-143.57
2023-04-09T17:37:29.327Z,-143.57
2023-04-09T17:40:54.715Z,-143.57
2023-04-09T17:44:20.628Z,-143.57
2023-04-09T17:47:45.946Z,-143.57
2023-04-09T17:51:16.587Z,-143.57
2023-04-09T17:54:45.466Z,-143.57
2023-04-09T17:58:10.945Z,-143.57
2023-04-09T18:01:37.910Z,-143.57
2023-04-09T18:05:06.271Z,-143.57
2023-04-09T18:08:31.633Z,-143.57
2023-04-09T18:11:59.244Z,-143.57
2023-04-09T18:15:24.404Z,-143.57
2023-04-09T18:18:49.838Z,-143.57
2023-04-09T18:22:15.176Z,-143.57
2023-04-09T18:25:40.561Z,-143.57
2023-04-09T18:29:05.933Z,-143.57
2023-04-09T18:32:32.371Z,-143.57
2023-04-09T18:35:59.514Z,-143.57
2023-04-09T18:39:24.778Z,-143.57
2023-04-09T18:42:52.418Z,-143.57
2023-04-09T18:46:18.217Z,-143.57
2023-04-09T18:49:46.535Z,-143.57
2023-04-09T18:53:11.739Z,-143.57
2023-04-09T18:56:37.534Z,-143.57
2023-04-09T19:00:04.047Z,-143.57
2023-04-09T19:03:30.764Z,-143.57
2023-04-09T19:06:56.363Z,-143.57
2023-04-09T19:10:21.856Z,-143.57
2023-04-09T19:13:47.097Z,-143.57
2023-04-09T19:17:12.481Z,-143.57
2023-04-09T19:20:37.854Z,-143.57
2023-04-09T19:24:05.913Z,-143.57
2023-04-09T19:27:31.570Z,-143.57
2023-04-09T19:30:56.923Z,-143.57
2023-04-09T19:34:23.186Z,-143.57
2023-04-09T19:37:48.715Z,-143.57
2023-04-09T19:41:13.971Z,-143.57
2023-04-09T19:44:39.171Z,-143.57
2023-04-09T19:48:07.551Z,-143.57
2023-04-09T19:51:33.659Z,-143.57
2023-04-09T19:54:58.973Z,-143.57
2023-04-09T19:58:24.155Z,-143.57
2023-04-09T20:01:49.443Z,-143.57
2023-04-09T20:05:15.495Z,-143.57
2023-04-09T20:08:41.002Z,-143.57
2023-04-09T20:12:08.670Z,-143.57
2023-04-09T20:15:34.618Z,-143.57
2023-04-09T20:18:59.831Z,-143.57
2023-04-09T20:22:25.379Z,-143.57
2023-04-09T20:25:54.145Z,-143.57
2023-04-09T20:29:19.690Z,-143.57
2023-04-09T20:32:44.951Z,-143.57
2023-04-09T20:36:16.894Z,-143.57
2023-04-09T20:39:42.185Z,-143.57
2023-04-09T20:43:07.356Z,-143.57
2023-04-09T20:46:32.541Z,-143.57
2023-04-09T20:49:59.924Z,-143.57
2023-04-09T20:53:28.670Z,-143.57
2023-04-09T20:56:54.408Z,-143.57
2023-04-09T21:00:19.627Z,-143.57
2023-04-09T21:03:44.982Z,-143.57
2023-04-09T21:07:10.452Z,-143.57
2023-04-09T21:10:35.692Z,-143.57
2023-04-09T21:14:01.130Z,-143.57
2023-04-09T21:17:26.453Z,-143.57
2023-04-09T21:20:51.750Z,-143.57
2023-04-09T21:24:18.324Z,-143.57
2023-04-09T21:27:43.599Z,-143.57
2023-04-09T21:31:10.092Z,-143.57
2023-04-09T21:34:37.254Z,-143.57
2023-04-09T21:38:03.104Z,-143.57
2023-04-09T21:41:28.713Z,-143.57
2023-04-09T21:44:53.975Z,-143.57
2023-04-09T21:48:19.244Z,-143.57
2023-04-09T21:51:47.618Z,-143.57
2023-04-09T21:55:13.968Z,-143.57
2023-04-09T21:58:39.234Z,-143.57
2023-04-09T22:02:04.893Z,-143.57
2023-04-09T22:05:32.115Z,-143.57
2023-04-09T22:08:58.168Z,-143.57
2023-04-09T22:12:24.631Z,-143.57
2023-04-09T22:15:49.870Z,-143.57
2023-04-09T22:19:15.347Z,-143.57
2023-04-09T22:22:42.085Z,-143.57
2023-04-09T22:26:07.619Z,-143.57
2023-04-09T22:29:32.887Z,-143.57
2023-04-09T22:32:58.283Z,-143.57
2023-04-09T22:36:23.626Z,-143.57
2023-04-09T22:39:48.960Z,-143.57
2023-04-09T22:43:14.374Z,-143.57
2023-04-09T22:46:39.611Z,-143.57
2023-04-09T22:50:07.816Z,-143.57
2023-04-09T22:53:33.086Z,-143.57
2023-04-09T22:56:58.365Z,-143.57
2023-04-09T23:00:23.732Z,-143.57
2023-04-09T23:03:51.784Z,-143.57
2023-04-09T23:07:17.020Z,-143.57
2023-04-09T23:10:43.395Z,-143.57
2023-04-09T23:14:08.618Z,-143.57
2023-04-09T23:17:35.143Z,-143.57
2023-04-09T23:21:09.980Z,-143.57
2023-04-09T23:24:35.808Z,-143.57
2023-04-09T23:28:00.805Z,-143.57
2023-04-09T23:31:26.233Z,-143.57
2023-04-09T23:34:51.400Z,-143.57
2023-04-09T23:38:17.943Z,-143.57
2023-04-09T23:41:43.253Z,-143.57
2023-04-09T23:45:05.441Z,-143.57
2023-04-09T23:48:31.231Z,-143.57
2023-04-09T23:51:56.474Z,-143.57
2023-04-09T23:55:21.699Z,-143.57
2023-04-09T23:58:46.918Z,-143.57
